Flight Track Log - Related Links

Times and Time Zones

All times are in EDT time to prevent confusion due to time zone crossing. See the MAL7056 flight status page for this flight to view local times or setup timezone preferences in your user account.

Time Position Orientation Groundspeed Altitude Reporting Facility
EDT Latitude Longitude Course Direction KTS MPH feet Rate Location/Type
Fri 05:24:19 PM 46.6000 -80.8667 242° Southwest 110 127 2,900  Level Toronto Center
Fri 05:25:19 PM 46.5833 -80.9000 234° Southwest 110 127 3,800 800 Climbing Toronto Center
Fri 05:26:19 PM 46.5500 -80.9167 199° South 100 115 4,500 700 Climbing Toronto Center
Fri 05:27:19 PM 46.5333 -80.9000 145° Southeast 110 127 5,200 700 Climbing Toronto Center
Fri 05:28:19 PM 46.5000 -80.8667 145° Southeast 110 127 5,900 700 Climbing Toronto Center
Fri 05:29:19 PM 46.4833 -80.8667 180° South 120 138 6,600 750 Climbing Toronto Center
Fri 05:30:19 PM 46.4500 -80.8333 145° Southeast 120 138 7,400 700 Climbing Toronto Center
Fri 05:31:19 PM 46.4167 -80.8333 180° South 120 138 8,000 700 Climbing Toronto Center
Fri 05:32:19 PM 46.3833 -80.8167 161° South 120 138 8,800 500 Climbing Toronto Center
Fri 05:33:19 PM 46.3333 -80.8167 180° South 130 150 9,000 100 Climbing Toronto Center
Fri 05:34:19 PM 46.3000 -80.7833 145° Southeast 160 184 9,000 50 Level Toronto Center
Fri 05:35:19 PM 46.2500 -80.7833 180° South 160 184 9,100 50 Climbing Toronto Center
Fri 05:36:19 PM 46.2000 -80.7667 167° South 160 184 9,100 -50 Level Toronto Center
Fri 05:37:19 PM 46.1667 -80.7667 180° South 170 196 9,000  Descending Toronto Center
Fri 05:38:19 PM 46.1167 -80.7333 155° Southeast 170 196 9,100  Climbing Toronto Center
Fri 05:39:19 PM 46.0667 -80.7333 180° South 170 196 9,000  Descending Toronto Center
Fri 05:40:19 PM 46.0167 -80.7167 167° South 170 196 9,100 50 Climbing Toronto Center
Fri 05:41:19 PM 45.9833 -80.6833 145° Southeast 170 196 9,100  Level Toronto Center
Fri 05:42:19 PM 45.9333 -80.6833 180° South 170 196 9,100  Level Toronto Center
Fri 05:43:19 PM 45.8833 -80.6667 167° South 170 196 9,100  Level Toronto Center
Fri 05:44:19 PM 45.8333 -80.6667 180° South 170 196 9,100  Level Toronto Center
Fri 05:45:19 PM 45.8000 -80.6333 145° Southeast 170 196 9,100  Level Toronto Center
Fri 05:46:19 PM 45.7500 -80.6333 180° South 170 196 9,100  Level Toronto Center
Fri 05:47:19 PM 45.7000 -80.6167 167° South 170 196 9,100  Level Toronto Center
Fri 05:48:19 PM 45.6500 -80.5833 155° Southeast 170 196 9,100  Level Toronto Center
Fri 05:49:19 PM 45.6167 -80.5833 180° South 170 196 9,100  Level Toronto Center
Fri 05:50:19 PM 45.5667 -80.5667 167° South 170 196 9,100  Level Toronto Center
Fri 05:51:19 PM 45.5167 -80.5667 180° South 170 196 9,100  Level Toronto Center
Fri 05:52:19 PM 45.4667 -80.5333 155° Southeast 170 196 9,100  Level Toronto Center
Fri 05:53:19 PM 45.4167 -80.5167 167° South 170 196 9,100  Level Toronto Center
Fri 05:54:19 PM 45.3833 -80.5167 180° South 170 196 9,100  Level Toronto Center
Fri 05:55:19 PM 45.3333 -80.4833 155° Southeast 170 196 9,100  Level Toronto Center
Fri 05:56:19 PM 45.2833 -80.4833 180° South 170 196 9,100  Level Toronto Center
Fri 05:57:19 PM 45.2333 -80.4667 167° South 170 196 9,100  Level Toronto Center
Fri 05:58:19 PM 45.1833 -80.4667 180° South 170 196 9,100  Level Toronto Center
Fri 05:59:19 PM 45.1333 -80.4333 155° Southeast 170 196 9,100  Level Toronto Center
Fri 06:00:19 PM 45.1000 -80.4167 161° South 170 196 9,100  Level Toronto Center
Fri 06:01:19 PM 45.0500 -80.4167 180° South 170 196 9,100  Level Toronto Center
Fri 06:02:19 PM 45.0000 -80.3833 155° Southeast 170 196 9,100 -150 Level Toronto Center
Fri 06:03:19 PM 44.9500 -80.3833 180° South 180 207 8,800 -400 Descending Toronto Center
Fri 06:04:19 PM 44.9000 -80.3667 167° South 190 219 8,300 -500 Descending Toronto Center
Fri 06:05:19 PM 44.8500 -80.3667 180° South 190 219 7,800 -500 Descending Toronto Center
Fri 06:06:19 PM 44.8000 -80.3333 155° Southeast 190 219 7,300 -400 Descending Toronto Center
Fri 06:07:19 PM 44.7500 -80.3167 167° South 190 219 7,000 -150 Descending Toronto Center
Fri 06:08:19 PM 44.7000 -80.2833 155° Southeast 170 196 7,000  Level Toronto Center
Fri 06:09:19 PM 44.6500 -80.2833 180° South 170 196 7,000  Level Toronto Center
Fri 06:10:19 PM 44.6000 -80.2667 167° South 160 184 7,000  Level Toronto Center
Fri 06:11:19 PM 44.5667 -80.2667 180° South 160 184 7,000  Level Toronto Center
Fri 06:12:19 PM 44.5167 -80.2333 155° Southeast 160 184 7,000  Level Toronto Center
Fri 06:13:19 PM 44.4667 -80.2333 180° South 170 196 7,000  Level Toronto Center
Fri 06:14:19 PM 44.4333 -80.2167 160° South 170 196 7,000  Level Toronto Center
Fri 06:15:19 PM 44.3833 -80.2000 167° South 170 196 7,000  Level Toronto Center
Fri 06:16:19 PM 44.3333 -80.2000 180° South 170 196 7,000  Level Toronto Center
Fri 06:17:19 PM 44.3000 -80.1667 144° Southeast 170 196 7,000  Level Toronto Center
Fri 06:18:19 PM 44.2500 -80.1667 180° South 170 196 7,000  Level Toronto Center
Fri 06:19:19 PM 44.2000 -80.1500 167° South 170 196 7,000  Level Toronto Center
Fri 06:20:19 PM 44.1500 -80.1500 180° South 170 196 7,000  Level Toronto Center
Fri 06:21:19 PM 44.1167 -80.1000 133° Southeast 170 196 7,000  Level Toronto Center
Fri 06:22:19 PM 44.0667 -80.0667 154° Southeast 180 207 7,000  Level Toronto Center
Fri 06:23:19 PM 44.0333 -80.0333 144° Southeast 170 196 7,000  Level Toronto Center
Fri 06:24:19 PM 43.9833 -80.0333 180° South 170 196 7,000 -350 Level Toronto Center
Fri 06:25:19 PM 43.9500 -79.9833 133° Southeast 170 196 6,300 -500 Descending Toronto Center
Fri 06:26:19 PM 43.9167 -79.9500 144° Southeast 170 196 6,000 -350 Descending Toronto Center
Fri 06:27:19 PM 43.8833 -79.9167 144° Southeast 160 184 5,600 -650 Descending Toronto Center
Fri 06:28:19 PM 43.8500 -79.8667 133° Southeast 160 184 4,700 -850 Descending Toronto Center
Fri 06:29:19 PM 43.8167 -79.8167 133° Southeast 170 196 3,900 -700 Descending Toronto Center
Fri 06:30:19 PM 43.7833 -79.7667 133° Southeast 170 196 3,300 -650 Descending Toronto Center
Fri 06:31:19 PM 43.7500 -79.7333 144° Southeast 160 184 2,600 -750 Descending Toronto Center
Fri 06:32:19 PM 43.7167 -79.6833 133° Southeast 150 173 1,800 -800 Descending Toronto Center
Fri 06:33:19 PM 43.6833 -79.6500 144° Southeast 140 161 1,000 -650 Descending Toronto Center
Fri 06:34:19 PM 43.6667 -79.6333 144° Southeast 90 104 500 -500 Descending Toronto Center

Login

Don't have an account? Register now (free) for customized features, flight alerts, and more!